createdAt,value
2022-11-15T00:02:57.367Z,85.03
2022-11-15T00:07:40.151Z,84.56
2022-11-15T00:11:53.149Z,84.82
2022-11-15T00:16:11.652Z,84.67
2022-11-15T00:20:44.009Z,84.32
2022-11-15T00:25:01.289Z,84.90
2022-11-15T00:29:19.996Z,84.77
2022-11-15T00:32:56.592Z,84.10
2022-11-15T00:37:14.489Z,84.58
2022-11-15T00:41:32.506Z,84.54
2022-11-15T00:45:50.212Z,84.83
2022-11-15T00:50:10.720Z,84.39
2022-11-15T00:54:31.675Z,84.94
2022-11-15T00:59:03.644Z,85.13
2022-11-15T01:03:21.672Z,85.26
2022-11-15T01:07:39.568Z,85.14
2022-11-15T01:11:57.138Z,85.12
2022-11-15T01:16:17.732Z,85.25
2022-11-15T01:20:35.437Z,85.09
2022-11-15T01:24:53.151Z,85.00
2022-11-15T01:29:11.507Z,85.13
2022-11-15T01:33:30.483Z,85.57
2022-11-15T01:37:48.212Z,85.37
2022-11-15T01:42:05.929Z,85.41
2022-11-15T01:46:26.493Z,85.68
2022-11-15T01:50:44.451Z,86.06
2022-11-15T01:55:02.729Z,85.92
2022-11-15T01:59:20.990Z,85.86
2022-11-15T02:03:55.452Z,85.81
2022-11-15T02:08:21.264Z,85.69
2022-11-15T02:12:39.632Z,85.30
2022-11-15T02:17:11.504Z,85.89
2022-11-15T02:21:29.746Z,85.88
2022-11-15T02:30:49.218Z,85.83
2022-11-15T02:39:01.533Z,86.01
2022-11-15T02:44:00.098Z,86.42
2022-11-15T02:47:19.668Z,86.50
2022-11-15T02:51:45.609Z,86.38
2022-11-15T02:55:37.475Z,86.43
2022-11-15T03:00:05.415Z,86.06
2022-11-15T03:09:01.529Z,86.65
2022-11-15T03:13:51.246Z,86.55
2022-11-15T03:18:43.362Z,86.56
2022-11-15T03:23:05.846Z,86.34
2022-11-15T03:32:01.973Z,86.71
2022-11-15T03:36:36.348Z,86.36
2022-11-15T03:41:09.489Z,86.74
2022-11-15T03:45:52.451Z,86.87
2022-11-15T03:49:38.317Z,86.54
2022-11-15T03:54:14.381Z,86.31
2022-11-15T03:58:34.967Z,86.41
2022-11-15T04:02:54.736Z,86.38
2022-11-15T04:15:37.886Z,86.21
2022-11-15T04:20:34.149Z,86.59
2022-11-15T04:24:11.885Z,86.44
2022-11-15T04:28:31.530Z,86.44
2022-11-15T04:32:08.773Z,86.32
2022-11-15T04:36:45.348Z,86.39
2022-11-15T04:41:04.250Z,86.22
2022-11-15T04:45:36.503Z,86.42
2022-11-15T04:49:55.862Z,86.07
2022-11-15T04:54:14.445Z,86.29
2022-11-15T04:58:33.238Z,86.57
2022-11-15T05:06:46.137Z,86.75
2022-11-15T05:11:05.183Z,86.94
2022-11-15T05:15:23.388Z,86.58
2022-11-15T05:19:44.741Z,86.71
2022-11-15T05:24:17.750Z,86.50
2022-11-15T05:27:54.546Z,85.92
2022-11-15T05:37:14.791Z,86.47
2022-11-15T05:46:26.716Z,86.12
2022-11-15T05:50:46.612Z,86.37
2022-11-15T05:55:10.410Z,86.31
2022-11-15T06:03:15.673Z,86.44
2022-11-15T06:07:33.892Z,86.76
2022-11-15T06:11:52.668Z,86.56
2022-11-15T06:16:11.233Z,86.58
2022-11-15T06:20:30.418Z,86.30
2022-11-15T06:24:51.595Z,86.17
2022-11-15T06:28:26.245Z,86.31
2022-11-15T06:32:44.130Z,86.05
2022-11-15T06:37:16.919Z,86.31
2022-11-15T06:41:36.857Z,85.93
2022-11-15T06:50:41.409Z,86.44
2022-11-15T06:55:14.510Z,86.17
2022-11-15T06:58:51.792Z,86.22
2022-11-15T07:03:11.959Z,86.08
2022-11-15T07:07:32.705Z,85.78
2022-11-15T07:11:54.799Z,85.93
2022-11-15T07:16:15.748Z,85.63
2022-11-15T07:20:38.623Z,85.31
2022-11-15T07:24:57.554Z,86.07
2022-11-15T07:29:19.804Z,85.63
2022-11-15T07:32:56.485Z,86.16
2022-11-15T07:37:15.868Z,86.05
2022-11-15T07:45:30.468Z,86.07
2022-11-15T07:49:51.257Z,85.73
2022-11-15T07:53:31.036Z,85.68
2022-11-15T07:57:07.723Z,85.96
2022-11-15T08:01:28.354Z,85.90
2022-11-15T08:05:04.449Z,85.85
2022-11-15T08:09:25.723Z,85.93
2022-11-15T08:13:02.684Z,85.73
2022-11-15T08:17:22.446Z,85.98
2022-11-15T08:21:40.985Z,86.34
2022-11-15T08:26:02.356Z,85.74
2022-11-15T08:30:43.259Z,85.89
2022-11-15T08:35:02.966Z,85.51
2022-11-15T08:39:37.551Z,85.48
2022-11-15T08:43:14.512Z,85.70
2022-11-15T08:47:32.910Z,85.60
2022-11-15T08:51:50.894Z,85.85
2022-11-15T08:56:23.052Z,86.21
2022-11-15T09:00:55.124Z,86.15
2022-11-15T09:05:26.835Z,86.18
2022-11-15T09:09:50.233Z,85.66
2022-11-15T09:14:08.730Z,86.22
2022-11-15T09:23:12.978Z,85.86
2022-11-15T09:26:51.885Z,85.46
2022-11-15T09:31:24.592Z,85.78
2022-11-15T09:40:51.898Z,85.71
2022-11-15T09:50:18.798Z,86.41
2022-11-15T09:54:57.406Z,86.05
2022-11-15T09:59:07.603Z,86.05
2022-11-15T10:03:28.791Z,86.50
2022-11-15T10:07:33.122Z,85.87
2022-11-15T10:11:38.719Z,86.07
2022-11-15T10:15:54.756Z,86.19
2022-11-15T10:20:07.759Z,85.98
2022-11-15T10:24:14.028Z,85.71
2022-11-15T10:28:18.031Z,86.29
2022-11-15T10:32:18.582Z,86.25
2022-11-15T10:36:19.165Z,85.77
2022-11-15T10:40:22.793Z,85.78
2022-11-15T10:44:23.573Z,85.97
2022-11-15T10:48:24.247Z,85.85
2022-11-15T10:52:23.824Z,86.08
2022-11-15T10:56:22.940Z,85.68
2022-11-15T11:00:22.059Z,85.94
2022-11-15T11:04:50.200Z,85.94
2022-11-15T11:08:56.335Z,85.69
2022-11-15T11:12:55.670Z,86.25
2022-11-15T11:17:09.761Z,86.36
2022-11-15T11:21:45.698Z,86.65
2022-11-15T11:25:56.530Z,86.74
2022-11-15T11:30:02.951Z,86.76
2022-11-15T11:34:15.645Z,86.64
2022-11-15T11:38:21.205Z,86.79
2022-11-15T11:42:26.804Z,86.72
2022-11-15T11:46:12.368Z,87.07
2022-11-15T11:50:29.291Z,87.11
2022-11-15T11:54:39.721Z,87.16
2022-11-15T11:58:43.929Z,86.76
2022-11-15T12:02:51.055Z,86.82
2022-11-15T12:06:52.762Z,86.28
2022-11-15T12:10:34.006Z,86.33
2022-11-15T12:14:55.795Z,86.18
2022-11-15T12:18:17.483Z,86.28
2022-11-15T12:21:57.771Z,86.27
2022-11-15T12:25:47.258Z,86.35
2022-11-15T12:30:27.063Z,86.74
2022-11-15T12:33:45.324Z,86.42
2022-11-15T12:37:25.854Z,86.46
2022-11-15T12:41:27.262Z,86.75
2022-11-15T12:49:38.042Z,86.83
2022-11-15T12:53:37.590Z,86.75
2022-11-15T12:57:37.837Z,86.64
2022-11-15T13:01:39.734Z,86.37
2022-11-15T13:05:54.630Z,86.28
2022-11-15T13:09:53.859Z,86.27
2022-11-15T13:13:53.889Z,86.19
2022-11-15T13:17:54.228Z,86.03
2022-11-15T13:22:11.872Z,85.97
2022-11-15T13:26:13.686Z,86.31
2022-11-15T13:30:17.392Z,85.91
2022-11-15T13:38:57.952Z,86.14
2022-11-15T13:47:28.559Z,86.07
2022-11-15T13:51:34.219Z,86.74
2022-11-15T13:55:34.169Z,87.01
2022-11-15T13:59:35.347Z,87.01
2022-11-15T14:03:35.607Z,87.36
2022-11-15T14:07:43.240Z,87.57
2022-11-15T14:11:57.982Z,87.84
2022-11-15T14:16:21.207Z,88.20
2022-11-15T14:20:33.747Z,87.98
2022-11-15T14:24:33.083Z,88.35
2022-11-15T14:28:34.840Z,88.79
2022-11-15T14:32:47.892Z,88.65
2022-11-15T14:36:47.148Z,88.51
2022-11-15T14:40:47.126Z,88.76
2022-11-15T14:45:00.368Z,89.11
2022-11-15T14:48:59.267Z,88.97
2022-11-15T14:52:58.228Z,89.07
2022-11-15T14:56:57.143Z,89.20
2022-11-15T15:00:56.407Z,89.32
2022-11-15T15:04:55.695Z,89.80
2022-11-15T15:08:55.001Z,90.06
2022-11-15T15:12:54.205Z,89.68
2022-11-15T15:16:54.918Z,89.09
2022-11-15T15:20:31.237Z,89.77
2022-11-15T15:24:31.453Z,89.19
2022-11-15T15:28:34.520Z,88.55
2022-11-15T15:32:34.143Z,89.23
2022-11-15T15:36:33.822Z,88.52
2022-11-15T15:40:52.042Z,88.34
2022-11-15T15:44:10.789Z,88.17
2022-11-15T15:48:14.766Z,88.51
2022-11-15T15:52:13.662Z,88.55
2022-11-15T15:56:12.369Z,88.24
2022-11-15T16:00:12.366Z,87.73
2022-11-15T16:04:11.723Z,87.76
2022-11-15T16:08:24.583Z,87.47
2022-11-15T16:12:24.098Z,87.23
2022-11-15T16:16:23.144Z,87.14
2022-11-15T16:20:25.283Z,86.50
2022-11-15T16:24:24.296Z,86.83
2022-11-15T16:28:24.884Z,86.73
2022-11-15T16:32:24.111Z,86.79
2022-11-15T16:36:37.069Z,86.89
2022-11-15T16:40:36.688Z,87.07
2022-11-15T16:44:35.867Z,87.11
2022-11-15T16:48:35.415Z,86.71
2022-11-15T16:52:34.570Z,87.05
2022-11-15T16:56:33.728Z,87.13
2022-11-15T17:00:32.569Z,86.53
2022-11-15T17:04:33.902Z,86.76
2022-11-15T17:08:46.948Z,86.56
2022-11-15T17:12:47.813Z,86.80
2022-11-15T17:16:23.353Z,87.47
2022-11-15T17:20:25.102Z,88.38
2022-11-15T17:24:00.351Z,87.50
2022-11-15T17:28:13.438Z,86.30
2022-11-15T17:32:12.224Z,86.03
2022-11-15T17:36:12.796Z,86.34
2022-11-15T17:40:12.245Z,86.58
2022-11-15T17:44:11.468Z,86.64
2022-11-15T17:48:10.836Z,86.57
2022-11-15T17:52:09.250Z,86.54
2022-11-15T17:56:09.410Z,86.57
2022-11-15T18:00:22.068Z,86.42
2022-11-15T18:04:21.232Z,86.59
2022-11-15T18:08:21.112Z,86.92
2022-11-15T18:12:20.045Z,86.99
2022-11-15T18:16:20.082Z,86.74
2022-11-15T18:20:19.081Z,86.86
2022-11-15T18:24:17.838Z,86.99
2022-11-15T18:28:17.105Z,86.87
2022-11-15T18:32:18.042Z,86.84
2022-11-15T18:36:19.174Z,87.19
2022-11-15T18:40:18.604Z,86.90
2022-11-15T18:44:17.483Z,86.87
2022-11-15T18:48:31.647Z,87.14
2022-11-15T18:52:30.418Z,87.37
2022-11-15T18:56:30.619Z,87.77
2022-11-15T19:00:29.529Z,87.78
2022-11-15T19:04:28.328Z,87.71
2022-11-15T19:08:31.601Z,87.48
2022-11-15T19:12:33.500Z,88.00
2022-11-15T19:16:33.577Z,87.64
2022-11-15T19:20:35.407Z,87.61
2022-11-15T19:24:34.716Z,87.60
2022-11-15T19:28:51.341Z,87.44
2022-11-15T19:32:50.789Z,87.36
2022-11-15T19:36:50.191Z,87.26
2022-11-15T19:40:49.754Z,87.28
2022-11-15T19:44:49.764Z,87.43
2022-11-15T19:48:48.879Z,87.77
2022-11-15T19:52:48.676Z,87.70
2022-11-15T19:56:47.485Z,87.48
2022-11-15T20:00:46.470Z,87.64
2022-11-15T20:04:45.728Z,87.52
2022-11-15T20:08:46.126Z,87.60
2022-11-15T20:12:45.007Z,87.43
2022-11-15T20:16:43.908Z,87.85
2022-11-15T20:20:58.752Z,88.87
2022-11-15T20:24:57.968Z,89.94
2022-11-15T20:29:01.296Z,89.80
2022-11-15T20:33:00.624Z,90.26
2022-11-15T20:37:01.587Z,90.12
2022-11-15T20:41:00.796Z,90.66
2022-11-15T20:45:00.283Z,90.98
2022-11-15T20:48:59.266Z,91.18
2022-11-15T20:53:03.428Z,92.12
2022-11-15T20:57:10.333Z,92.55
2022-11-15T22:12:00.346Z,84.18
2022-11-15T22:14:59.948Z,83.19
2022-11-15T22:18:59.831Z,83.50
2022-11-15T22:22:59.786Z,82.82
2022-11-15T22:26:59.229Z,82.51
2022-11-15T22:30:59.639Z,82.34
2022-11-15T22:34:58.337Z,82.21
2022-11-15T22:38:57.420Z,81.40
2022-11-15T22:42:56.471Z,81.77
2022-11-15T22:46:55.791Z,81.29
2022-11-15T22:50:58.737Z,81.78
2022-11-15T22:55:00.956Z,81.56
2022-11-15T22:58:40.398Z,81.34
2022-11-15T23:02:18.054Z,81.54
2022-11-15T23:06:22.711Z,81.83
2022-11-15T23:10:17.675Z,80.85
2022-11-15T23:14:32.117Z,79.40
2022-11-15T23:18:36.422Z,79.29
2022-11-15T23:22:52.952Z,79.34
2022-11-15T23:27:03.095Z,78.82
2022-11-15T23:31:30.473Z,78.97
2022-11-15T23:35:34.231Z,79.62
2022-11-15T23:39:13.773Z,80.85
2022-11-15T23:42:50.604Z,80.59
2022-11-15T23:46:30.280Z,80.72
2022-11-15T23:50:47.750Z,79.97
2022-11-15T23:55:06.660Z,79.96
2022-11-15T23:59:13.739Z,78.95
